Terminal Aerodrome Forecast
Issued by NWS

Home | Current Version | Previous Version | Text Only | Print | Product List | Glossary On
Versions: 1 2 3 4 5 6 7 8 9 10 11 12 13 14 15 16 17 18 19 20 21
489
FTUS43 KEAX 302322
TAFSTJ
TAF
KSTJ 302322Z 0100/0124 20009KT P6SM VCSH SCT035 OVC050
      TEMPO 0100/0104 6SM -SHRA BKN035
     FM010400 VRB04KT P6SM -SHRA OVC018
     FM011000 25007KT P6SM -DZ VCSH OVC008
     FM011600 28014KT P6SM OVC015
     FM012000 30018G25KT P6SM SCT030=

USA.gov is the U.S. government's official web portal to all federal, state and local government web resources and services.